Aviation Digital Data Service (ADDS)

Output produced by METARs form (2300 UTC 24 July 2014)
found at http://www.aviationweather.gov/adds/metars/
 
Forecast for: KSJC (SAN JOSE , CA, US)
Text: KSJC 241722Z 2418/2518 33005KT P6SM SKC
Forecast period: 1800 to 2000 UTC 24 July 2014
Forecast type: FROM: standard forecast or significant change
Winds: from the NNW (330 degrees) at 6 MPH (5 knots; 2.6 m/s)
Visibility: 6 or more miles (10+ km)
Clouds: clear skies
Weather: no significant weather forecast for this period
Text: FM242000 30012KT P6SM SKC
Forecast period: 2000 UTC 24 July 2014 to 0300 UTC 25 July 2014
Forecast type: FROM: standard forecast or significant change
Winds: from the WNW (300 degrees) at 14 MPH (12 knots; 6.2 m/s)
Visibility: 6 or more miles (10+ km)
Clouds: clear skies
Weather: no significant weather forecast for this period
Text: FM250300 30008KT P6SM SKC
Forecast period: 0300 to 0600 UTC 25 July 2014
Forecast type: FROM: standard forecast or significant change
Winds: from the WNW (300 degrees) at 9 MPH (8 knots; 4.2 m/s)
Visibility: 6 or more miles (10+ km)
Clouds: clear skies
Weather: no significant weather forecast for this period
Text: FM250600 VRB03KT P6SM SKC
Forecast period: 0600 to 1800 UTC 25 July 2014
Forecast type: FROM: standard forecast or significant change
Winds: variable direction winds at 3 MPH (3 knots; 1.6 m/s)
Visibility: 6 or more miles (10+ km)
Clouds: clear skies
Weather: no significant weather forecast for this period